Time;durP1;ratioP1;P1;durP2;ratioP2;P2;SDS_P1;SDS_P2;PMS_P1;PMS_P2;Temp;Humidity;BMP_temperature;BMP_pressure;BME280_temperature;BME280_humidity;BME280_pressure;Samples;Min_cycle;Max_cycle;Signal;HPM_P1;HPM_P2
2022/11/14 00:00:54;;;;;;;;;;;19.80;45.90;;;;;;5084453;28;19985;-66
2022/11/14 00:03:20;;;;;;;;;;;19.80;46.50;;;;;;5073737;28;19932;-67
2022/11/14 00:05:47;;;;;;;;;;;19.80;46.00;;;;;;5074759;28;19928;-67
2022/11/14 00:08:14;;;;;;;;;;;19.80;46.00;;;;;;5072735;28;19953;-68
2022/11/14 00:10:41;;;;;;;;;;;19.80;45.90;;;;;;5087856;28;19924;-67
2022/11/14 00:13:08;;;;;;;;;;;19.80;46.00;;;;;;5072802;28;20015;-68
2022/11/14 00:15:41;;;;;;;;;;;19.80;46.00;;;;;;5071990;28;19928;-67
2022/11/14 00:18:09;;;;;;;;;;;19.80;46.00;;;;;;5069832;28;19955;-68
2022/11/14 00:20:35;;;;;;;;;;;19.80;46.00;;;;;;5071799;28;19929;-67
2022/11/14 00:23:02;;;;;;;;;;;19.80;46.00;;;;;;5071948;28;19970;-68
2022/11/14 00:25:29;;;;;;;;;;;19.80;46.00;;;;;;5090115;28;19934;-68
2022/11/14 00:27:56;;;;;;;;;;;19.80;46.00;;;;;;5071529;28;19932;-68
2022/11/14 00:30:23;;;;;;;;;;;19.80;46.00;;;;;;5088065;28;19931;-68
2022/11/14 00:32:50;;;;;;;;;;;19.80;46.00;;;;;;5071560;28;19970;-66
2022/11/14 00:35:19;;;;;;;;;;;19.80;46.00;;;;;;5072793;28;19932;-68
2022/11/14 00:37:46;;;;;;;;;;;19.80;46.00;;;;;;5088379;28;19925;-68
2022/11/14 00:40:13;;;;;;;;;;;19.80;46.00;;;;;;5085650;28;19931;-68
2022/11/14 00:42:40;;;;;;;;;;;19.80;46.00;;;;;;5071287;28;19924;-67
2022/11/14 00:45:09;;;;;;;;;;;19.80;46.00;;;;;;5072273;28;20306;-69
2022/11/14 00:47:36;;;;;;;;;;;19.80;46.00;;;;;;5071297;28;19931;-67
2022/11/14 00:50:03;;;;;;;;;;;19.80;46.00;;;;;;5068962;28;19929;-69
2022/11/14 00:52:31;;;;;;;;;;;19.80;46.10;;;;;;5087607;28;19950;-68
2022/11/14 00:54:58;;;;;;;;;;;19.80;46.00;;;;;;5069547;28;19937;-68
2022/11/14 00:57:25;;;;;;;;;;;19.80;46.00;;;;;;5087970;28;19924;-68
2022/11/14 00:59:54;;;;;;;;;;;19.80;46.00;;;;;;5085080;28;19943;-68
2022/11/14 01:02:21;;;;;;;;;;;19.80;46.00;;;;;;5072389;28;19979;-67
2022/11/14 01:04:48;;;;;;;;;;;19.80;46.10;;;;;;5070569;28;19936;-67
2022/11/14 01:07:14;;;;;;;;;;;19.80;46.00;;;;;;5087239;28;19931;-68
2022/11/14 01:09:42;;;;;;;;;;;19.80;46.10;;;;;;5072755;28;19924;-67
2022/11/14 01:12:09;;;;;;;;;;;19.80;46.00;;;;;;5070176;28;20402;-67
2022/11/14 01:14:36;;;;;;;;;;;19.80;46.00;;;;;;5071742;28;19996;-68
2022/11/14 01:17:03;;;;;;;;;;;19.80;46.00;;;;;;5069119;28;19925;-68
2022/11/14 01:19:30;;;;;;;;;;;19.80;46.10;;;;;;5070493;28;19924;-68
2022/11/14 01:21:56;;;;;;;;;;;19.80;46.10;;;;;;5072824;28;19924;-67
2022/11/14 01:24:23;;;;;;;;;;;19.80;46.10;;;;;;5088239;28;19924;-68
2022/11/14 01:26:51;;;;;;;;;;;19.80;46.10;;;;;;5069492;28;19931;-68
2022/11/14 01:29:18;;;;;;;;;;;19.80;46.10;;;;;;5071848;28;19928;-69
2022/11/14 01:31:45;;;;;;;;;;;19.80;46.10;;;;;;5087525;28;20179;-67
2022/11/14 01:34:12;;;;;;;;;;;19.80;46.10;;;;;;5069105;28;19924;-67
2022/11/14 01:36:39;;;;;;;;;;;19.80;46.10;;;;;;5087729;28;19931;-67
2022/11/14 01:39:05;;;;;;;;;;;19.80;46.10;;;;;;5067863;28;19925;-68
2022/11/14 01:41:32;;;;;;;;;;;19.80;46.10;;;;;;5073379;28;19939;-67
2022/11/14 01:44:00;;;;;;;;;;;19.80;46.10;;;;;;5087857;28;19929;-67
2022/11/14 01:46:28;;;;;;;;;;;19.80;46.10;;;;;;5088305;28;19924;-68
2022/11/14 01:48:56;;;;;;;;;;;19.80;46.10;;;;;;5080104;28;19924;-67
2022/11/14 01:51:23;;;;;;;;;;;19.80;46.10;;;;;;5093208;28;19925;-68
2022/11/14 01:53:50;;;;;;;;;;;19.80;46.10;;;;;;5088079;28;19928;-68
2022/11/14 01:56:18;;;;;;;;;;;19.80;46.10;;;;;;5095808;28;20381;-68
2022/11/14 01:58:49;;;;;;;;;;;19.80;46.10;;;;;;5074894;28;19939;-68
2022/11/14 02:01:20;;;;;;;;;;;19.80;46.10;;;;;;5087662;28;19935;-67
2022/11/14 02:03:47;;;;;;;;;;;19.80;46.10;;;;;;5070193;28;19928;-68
2022/11/14 02:06:14;;;;;;;;;;;19.80;46.10;;;;;;5071722;28;19928;-67
2022/11/14 02:08:41;;;;;;;;;;;19.80;46.10;;;;;;5070127;28;19925;-67
2022/11/14 02:11:10;;;;;;;;;;;19.80;46.10;;;;;;5072165;28;19924;-67
2022/11/14 02:13:36;;;;;;;;;;;19.80;46.10;;;;;;5072061;28;19930;-68
2022/11/14 02:16:04;;;;;;;;;;;19.80;46.10;;;;;;5072459;28;19925;-67
2022/11/14 02:18:32;;;;;;;;;;;19.80;46.10;;;;;;5085379;28;19929;-67
2022/11/14 02:21:00;;;;;;;;;;;19.80;46.10;;;;;;5076389;28;19964;-68
2022/11/14 02:23:27;;;;;;;;;;;19.90;46.20;;;;;;5086613;28;19931;-68
2022/11/14 02:25:54;;;;;;;;;;;19.80;46.10;;;;;;5077414;28;19925;-68
2022/11/14 02:28:22;;;;;;;;;;;19.80;46.10;;;;;;5071301;28;19929;-68
2022/11/14 02:30:48;;;;;;;;;;;19.80;46.10;;;;;;5070277;28;19932;-67
2022/11/14 02:33:15;;;;;;;;;;;19.80;46.10;;;;;;5065995;28;19924;-67
2022/11/14 02:35:44;;;;;;;;;;;19.80;46.10;;;;;;5083828;28;20136;-68
2022/11/14 02:38:13;;;;;;;;;;;19.80;46.10;;;;;;5087410;28;19925;-69
2022/11/14 02:40:39;;;;;;;;;;;19.80;46.40;;;;;;5070035;28;20457;-68
2022/11/14 02:43:06;;;;;;;;;;;19.80;46.10;;;;;;5070312;28;19925;-68
2022/11/14 02:45:35;;;;;;;;;;;19.80;46.10;;;;;;5070488;28;19928;-67
2022/11/14 02:48:02;;;;;;;;;;;19.80;46.10;;;;;;5081069;28;20207;-68
2022/11/14 02:50:28;;;;;;;;;;;19.90;46.20;;;;;;5074590;28;20409;-68
2022/11/14 02:52:55;;;;;;;;;;;19.80;46.10;;;;;;5084297;28;19931;-69
2022/11/14 02:55:23;;;;;;;;;;;19.80;46.10;;;;;;5072381;28;19925;-67
2022/11/14 02:57:50;;;;;;;;;;;19.80;46.10;;;;;;5082284;28;20435;-68
2022/11/14 03:00:18;;;;;;;;;;;19.80;46.10;;;;;;5071236;28;20436;-68
2022/11/14 03:02:45;;;;;;;;;;;19.80;46.10;;;;;;5067685;28;19925;-68
2022/11/14 03:05:12;;;;;;;;;;;19.80;46.10;;;;;;5086183;28;19924;-68
2022/11/14 03:07:39;;;;;;;;;;;19.80;46.10;;;;;;5070640;28;19924;-69
2022/11/14 03:10:06;;;;;;;;;;;19.80;46.10;;;;;;5066769;28;20267;-67
2022/11/14 03:12:35;;;;;;;;;;;19.80;46.10;;;;;;5087930;28;19950;-68
2022/11/14 03:15:01;;;;;;;;;;;19.80;46.10;;;;;;5072900;28;20027;-68
2022/11/14 03:17:30;;;;;;;;;;;19.80;46.10;;;;;;5071521;28;19924;-69
2022/11/14 03:19:57;;;;;;;;;;;19.80;46.10;;;;;;5065474;28;20415;-67
2022/11/14 03:22:24;;;;;;;;;;;19.90;46.20;;;;;;5083321;28;20389;-67
2022/11/14 03:24:51;;;;;;;;;;;19.80;46.10;;;;;;5085316;28;19942;-67
2022/11/14 03:27:17;;;;;;;;;;;19.80;46.10;;;;;;5068195;28;19925;-68
2022/11/14 03:29:46;;;;;;;;;;;19.80;46.10;;;;;;5069692;28;19924;-68
2022/11/14 03:32:12;;;;;;;;;;;19.80;46.10;;;;;;5069106;28;19944;-68
2022/11/14 03:34:39;;;;;;;;;;;19.90;46.20;;;;;;5086162;28;19928;-68
2022/11/14 03:37:06;;;;;;;;;;;19.80;46.10;;;;;;5087621;28;19934;-67
2022/11/14 03:39:33;;;;;;;;;;;19.90;46.20;;;;;;5072118;28;20553;-67
2022/11/14 03:42:00;;;;;;;;;;;19.80;46.10;;;;;;5073454;28;19987;-67
2022/11/14 03:44:26;;;;;;;;;;;19.80;46.10;;;;;;5073465;28;19925;-67
2022/11/14 03:46:54;;;;;;;;;;;19.80;46.10;;;;;;5074076;28;19929;-66
2022/11/14 03:49:22;;;;;;;;;;;19.80;46.10;;;;;;5087718;28;19928;-67
2022/11/14 03:51:49;;;;;;;;;;;19.80;46.10;;;;;;5074900;28;19935;-68
2022/11/14 03:54:16;;;;;;;;;;;19.80;46.10;;;;;;5088574;28;20015;-68
2022/11/14 03:56:43;;;;;;;;;;;19.80;46.10;;;;;;5071003;28;19929;-68
2022/11/14 03:59:09;;;;;;;;;;;19.90;46.20;;;;;;5069924;28;19935;-68
2022/11/14 04:01:36;;;;;;;;;;;19.80;46.10;;;;;;5072269;28;19932;-69
2022/11/14 04:04:06;;;;;;;;;;;19.80;46.20;;;;;;5072501;28;19924;-68
2022/11/14 04:06:33;;;;;;;;;;;19.80;46.10;;;;;;5072172;28;19974;-68
2022/11/14 04:09:00;;;;;;;;;;;19.90;46.20;;;;;;5073946;28;19932;-67
2022/11/14 04:11:27;;;;;;;;;;;19.80;46.10;;;;;;5067671;28;19928;-68
2022/11/14 04:13:53;;;;;;;;;;;19.80;46.10;;;;;;5072814;28;19935;-67
2022/11/14 04:16:20;;;;;;;;;;;19.80;46.10;;;;;;5090064;28;19928;-67
2022/11/14 04:18:47;;;;;;;;;;;19.80;46.20;;;;;;5088680;28;19928;-68
2022/11/14 04:21:15;;;;;;;;;;;19.90;46.20;;;;;;5070086;28;19934;-67
2022/11/14 04:23:42;;;;;;;;;;;19.90;46.20;;;;;;5071479;28;19931;-68
2022/11/14 04:26:09;;;;;;;;;;;19.80;46.10;;;;;;5072655;28;19925;-67
2022/11/14 04:28:36;;;;;;;;;;;19.80;46.20;;;;;;5071859;28;19931;-67
2022/11/14 04:31:02;;;;;;;;;;;19.90;46.20;;;;;;5082501;28;19924;-67
2022/11/14 04:33:29;;;;;;;;;;;19.80;46.10;;;;;;5088509;28;19924;-67
2022/11/14 04:35:56;;;;;;;;;;;19.80;46.10;;;;;;5088560;28;19920;-67
2022/11/14 04:38:24;;;;;;;;;;;19.80;46.10;;;;;;5071850;28;19925;-67
2022/11/14 04:40:51;;;;;;;;;;;19.80;46.10;;;;;;5088210;28;19928;-68
2022/11/14 04:43:18;;;;;;;;;;;19.90;46.20;;;;;;5072584;28;19928;-69
2022/11/14 04:45:45;;;;;;;;;;;19.80;46.10;;;;;;5071154;28;19947;-68
2022/11/14 04:48:11;;;;;;;;;;;19.80;46.30;;;;;;5064671;28;19925;-68
2022/11/14 04:50:38;;;;;;;;;;;19.80;46.20;;;;;;5087606;28;19931;-67
2022/11/14 04:53:05;;;;;;;;;;;19.80;46.10;;;;;;5088792;28;19936;-68
2022/11/14 04:55:33;;;;;;;;;;;19.80;46.10;;;;;;5070558;28;19939;-68
2022/11/14 04:58:01;;;;;;;;;;;19.80;46.10;;;;;;5071005;28;19978;-67
2022/11/14 05:00:28;;;;;;;;;;;19.90;46.20;;;;;;5089107;28;19928;-67
2022/11/14 05:02:56;;;;;;;;;;;19.80;46.10;;;;;;5093906;28;19929;-68
2022/11/14 05:05:23;;;;;;;;;;;19.90;46.20;;;;;;5071660;28;19932;-67
2022/11/14 05:07:49;;;;;;;;;;;19.80;46.10;;;;;;5072036;28;19931;-67
2022/11/14 05:10:17;;;;;;;;;;;19.80;46.10;;;;;;5088442;28;19939;-67
2022/11/14 05:12:45;;;;;;;;;;;19.90;46.20;;;;;;5084865;28;19932;-68
2022/11/14 05:15:12;;;;;;;;;;;19.80;46.10;;;;;;5072665;28;19928;-68
2022/11/14 05:17:38;;;;;;;;;;;19.90;46.20;;;;;;5071390;28;19947;-68
2022/11/14 05:20:06;;;;;;;;;;;19.80;46.10;;;;;;5071926;28;19935;-67
2022/11/14 05:22:32;;;;;;;;;;;19.80;46.10;;;;;;5084687;28;19925;-67
2022/11/14 05:24:59;;;;;;;;;;;19.90;46.20;;;;;;5064244;28;19936;-67
2022/11/14 05:27:26;;;;;;;;;;;19.80;46.10;;;;;;5070457;28;19924;-67
2022/11/14 05:29:55;;;;;;;;;;;19.80;46.10;;;;;;5084051;28;19928;-67
2022/11/14 05:32:24;;;;;;;;;;;19.80;46.10;;;;;;5069210;28;19925;-67
2022/11/14 05:34:52;;;;;;;;;;;19.80;46.10;;;;;;5072124;28;19924;-68
2022/11/14 05:37:18;;;;;;;;;;;19.90;46.20;;;;;;5070056;28;19931;-68
2022/11/14 05:39:45;;;;;;;;;;;19.80;46.10;;;;;;5087012;28;19928;-68
2022/11/14 05:42:12;;;;;;;;;;;19.90;46.30;;;;;;5071255;28;20011;-68
2022/11/14 05:44:39;;;;;;;;;;;19.90;46.20;;;;;;5070733;28;19936;-67
2022/11/14 05:47:07;;;;;;;;;;;19.80;46.10;;;;;;5087183;28;19924;-68
2022/11/14 05:49:34;;;;;;;;;;;19.90;46.20;;;;;;5071291;28;19924;-68
2022/11/14 05:52:00;;;;;;;;;;;19.90;46.20;;;;;;5077055;28;20178;-67
2022/11/14 05:54:27;;;;;;;;;;;19.90;46.20;;;;;;5071246;28;19925;-68
2022/11/14 05:56:54;;;;;;;;;;;19.80;46.20;;;;;;5081898;28;19925;-67
2022/11/14 05:59:21;;;;;;;;;;;19.80;46.10;;;;;;5075905;28;19947;-67
2022/11/14 06:01:47;;;;;;;;;;;19.80;46.10;;;;;;5071618;28;19931;-67
2022/11/14 06:04:16;;;;;;;;;;;19.80;46.10;;;;;;5069131;28;19979;-67
2022/11/14 06:06:42;;;;;;;;;;;19.80;46.10;;;;;;5087884;28;20043;-67
2022/11/14 06:09:09;;;;;;;;;;;19.80;46.10;;;;;;5072299;28;19974;-66
2022/11/14 06:11:36;;;;;;;;;;;19.80;46.10;;;;;;5071471;28;19960;-68
2022/11/14 06:14:03;;;;;;;;;;;19.90;46.20;;;;;;5066913;28;20293;-67
2022/11/14 06:16:30;;;;;;;;;;;19.80;46.10;;;;;;5086150;28;19930;-68
2022/11/14 06:18:57;;;;;;;;;;;19.80;46.10;;;;;;5087394;28;19932;-68
2022/11/14 06:21:25;;;;;;;;;;;19.80;46.10;;;;;;5069577;28;19943;-68
2022/11/14 06:23:52;;;;;;;;;;;19.80;46.10;;;;;;5072352;28;19925;-67
2022/11/14 06:26:20;;;;;;;;;;;19.80;46.10;;;;;;5071607;28;19928;-68
2022/11/14 06:28:48;;;;;;;;;;;19.90;46.20;;;;;;5083747;28;20015;-67
2022/11/14 06:31:14;;;;;;;;;;;19.80;46.10;;;;;;5085480;28;19931;-68
2022/11/14 06:33:41;;;;;;;;;;;19.80;46.10;;;;;;5073790;28;20541;-68
2022/11/14 06:36:08;;;;;;;;;;;19.90;46.20;;;;;;5068760;28;19939;-68
2022/11/14 06:38:37;;;;;;;;;;;19.80;46.10;;;;;;5083131;28;19924;-67
2022/11/14 06:41:04;;;;;;;;;;;19.80;46.10;;;;;;5068532;28;20369;-68
2022/11/14 06:43:34;;;;;;;;;;;19.80;46.10;;;;;;5069416;28;19925;-69
2022/11/14 06:46:01;;;;;;;;;;;19.80;46.20;;;;;;5066585;28;19932;-68
2022/11/14 06:48:28;;;;;;;;;;;19.90;46.20;;;;;;5086723;28;19924;-68
2022/11/14 06:50:55;;;;;;;;;;;19.90;46.20;;;;;;5070499;28;20397;-67
2022/11/14 06:53:22;;;;;;;;;;;19.80;46.10;;;;;;5080710;28;19924;-68
2022/11/14 06:55:55;;;;;;;;;;;19.80;46.10;;;;;;5071248;28;19929;-69
2022/11/14 06:58:22;;;;;;;;;;;19.90;46.20;;;;;;5065381;28;20023;-68
2022/11/14 07:00:49;;;;;;;;;;;19.80;46.10;;;;;;5088244;28;19939;-67
2022/11/14 07:03:16;;;;;;;;;;;19.90;46.20;;;;;;5070832;28;19931;-68
2022/11/14 07:05:42;;;;;;;;;;;19.90;46.20;;;;;;5071739;28;19924;-69
2022/11/14 07:08:09;;;;;;;;;;;19.80;46.10;;;;;;5069093;28;19978;-67
2022/11/14 07:10:36;;;;;;;;;;;19.80;46.10;;;;;;5073528;28;19931;-68
2022/11/14 07:13:04;;;;;;;;;;;19.90;46.80;;;;;;5087606;28;19924;-68
2022/11/14 07:15:31;;;;;;;;;;;19.90;46.20;;;;;;5074644;28;19932;-67
2022/11/14 07:17:58;;;;;;;;;;;19.90;46.20;;;;;;5089485;28;19924;-69
2022/11/14 07:20:25;;;;;;;;;;;19.80;46.10;;;;;;5090802;28;19928;-69
2022/11/14 07:22:51;;;;;;;;;;;19.80;46.10;;;;;;5077572;28;19932;-68
2022/11/14 07:25:19;;;;;;;;;;;19.90;46.20;;;;;;5080051;28;19932;-69
2022/11/14 07:27:46;;;;;;;;;;;19.80;46.20;;;;;;5072619;28;19932;-69
2022/11/14 07:30:15;;;;;;;;;;;19.90;46.20;;;;;;5079651;28;19932;-70
2022/11/14 07:32:42;;;;;;;;;;;19.80;46.10;;;;;;5078855;28;19928;-68
2022/11/14 07:35:09;;;;;;;;;;;19.90;46.20;;;;;;5080110;28;19932;-67
2022/11/14 07:37:36;;;;;;;;;;;19.90;46.20;;;;;;5068117;28;19934;-67
2022/11/14 07:40:03;;;;;;;;;;;19.80;46.10;;;;;;5083819;28;19933;-68
2022/11/14 07:42:30;;;;;;;;;;;19.90;46.20;;;;;;5068454;28;19932;-68
2022/11/14 07:44:56;;;;;;;;;;;19.80;46.10;;;;;;5089293;28;19928;-68
2022/11/14 07:47:25;;;;;;;;;;;19.90;46.10;;;;;;5073967;28;19924;-69
2022/11/14 07:49:52;;;;;;;;;;;19.90;46.20;;;;;;5077594;28;19932;-68
2022/11/14 07:52:18;;;;;;;;;;;19.90;46.20;;;;;;5071566;28;19928;-67
2022/11/14 07:54:45;;;;;;;;;;;19.90;46.20;;;;;;5066807;28;20131;-70
2022/11/14 07:57:12;;;;;;;;;;;19.90;46.10;;;;;;5068684;28;19939;-69
2022/11/14 07:59:39;;;;;;;;;;;19.90;46.10;;;;;;5079523;28;20020;-68
2022/11/14 08:02:06;;;;;;;;;;;19.90;46.10;;;;;;5067937;28;19925;-67
2022/11/14 08:04:34;;;;;;;;;;;19.90;46.20;;;;;;5080656;28;19936;-74
2022/11/14 08:07:01;;;;;;;;;;;19.90;46.10;;;;;;5086036;28;20739;-74
2022/11/14 08:09:28;;;;;;;;;;;19.90;46.20;;;;;;5082810;28;20413;-73
2022/11/14 08:11:55;;;;;;;;;;;19.90;46.20;;;;;;5099741;28;19940;-72
2022/11/14 08:14:22;;;;;;;;;;;19.90;46.20;;;;;;5086211;28;19928;-72
2022/11/14 08:16:50;;;;;;;;;;;19.90;46.20;;;;;;5080145;28;19930;-73
2022/11/14 08:19:16;;;;;;;;;;;19.90;46.20;;;;;;5080850;28;19939;-74
2022/11/14 08:21:44;;;;;;;;;;;19.90;46.30;;;;;;5079481;28;19943;-70
2022/11/14 08:24:11;;;;;;;;;;;19.90;46.30;;;;;;5084001;28;19932;-73
2022/11/14 08:26:38;;;;;;;;;;;19.90;46.30;;;;;;5078312;28;19936;-70
2022/11/14 08:29:05;;;;;;;;;;;19.90;46.30;;;;;;5096785;28;19940;-71
2022/11/14 08:31:32;;;;;;;;;;;19.90;46.30;;;;;;5087518;28;19924;-71
2022/11/14 08:33:59;;;;;;;;;;;19.90;46.30;;;;;;5077637;28;19938;-70
2022/11/14 08:36:26;;;;;;;;;;;20.00;46.40;;;;;;5083530;28;19939;-70
2022/11/14 08:38:54;;;;;;;;;;;19.90;46.30;;;;;;5092557;28;19934;-71
2022/11/14 08:41:21;;;;;;;;;;;20.00;46.40;;;;;;5076766;28;20338;-71
2022/11/14 08:43:48;;;;;;;;;;;20.00;46.40;;;;;;5072494;28;19933;-72
2022/11/14 08:46:14;;;;;;;;;;;20.00;46.40;;;;;;5091663;28;19955;-72
2022/11/14 08:48:41;;;;;;;;;;;20.00;46.40;;;;;;5071682;28;20049;-70
2022/11/14 08:51:09;;;;;;;;;;;20.00;46.50;;;;;;5089433;28;19931;-72
2022/11/14 08:53:35;;;;;;;;;;;20.00;46.40;;;;;;5088653;28;19935;-72
2022/11/14 08:56:04;;;;;;;;;;;20.00;46.40;;;;;;5075870;28;19932;-71
2022/11/14 08:58:30;;;;;;;;;;;20.00;46.50;;;;;;5089938;28;19925;-72
2022/11/14 09:01:01;;;;;;;;;;;20.00;46.40;;;;;;5088132;28;19958;-71
2022/11/14 09:03:27;;;;;;;;;;;20.00;46.50;;;;;;5069605;28;19978;-73
2022/11/14 09:05:54;;;;;;;;;;;20.00;46.50;;;;;;5091557;28;19931;-71
2022/11/14 09:08:21;;;;;;;;;;;20.00;46.50;;;;;;5072936;28;19924;-72
2022/11/14 09:10:48;;;;;;;;;;;20.10;46.60;;;;;;5072109;28;19931;-72
2022/11/14 09:13:16;;;;;;;;;;;20.10;46.60;;;;;;5091903;28;19935;-72
2022/11/14 09:15:43;;;;;;;;;;;20.10;46.60;;;;;;5070023;28;19932;-70
2022/11/14 09:18:10;;;;;;;;;;;20.10;46.60;;;;;;5092821;28;19924;-75
2022/11/14 09:20:36;;;;;;;;;;;20.10;46.60;;;;;;5075107;28;20005;-75
2022/11/14 09:23:03;;;;;;;;;;;20.10;46.70;;;;;;5091154;28;19932;-73
2022/11/14 09:25:30;;;;;;;;;;;20.10;46.60;;;;;;5098564;28;19928;-76
2022/11/14 09:27:57;;;;;;;;;;;20.10;46.60;;;;;;5067751;28;19929;-75
2022/11/14 09:30:26;;;;;;;;;;;20.10;46.60;;;;;;5093655;28;19931;-72
2022/11/14 09:32:52;;;;;;;;;;;20.10;47.20;;;;;;5081741;28;20492;-71
2022/11/14 09:35:19;;;;;;;;;;;20.10;46.60;;;;;;5070078;28;19932;-75
2022/11/14 09:37:46;;;;;;;;;;;20.10;46.70;;;;;;5078692;28;19924;-75
2022/11/14 09:40:13;;;;;;;;;;;20.10;46.60;;;;;;5076379;28;19935;-74
2022/11/14 09:42:47;;;;;;;;;;;20.10;46.70;;;;;;5074199;28;20197;-74
2022/11/14 09:45:14;;;;;;;;;;;20.10;46.70;;;;;;5077783;28;19924;-74
2022/11/14 09:47:43;;;;;;;;;;;20.10;46.70;;;;;;5086619;28;19924;-73
2022/11/14 09:50:11;;;;;;;;;;;20.10;46.70;;;;;;5091687;28;20272;-72
2022/11/14 09:52:38;;;;;;;;;;;20.20;46.70;;;;;;5089781;28;20425;-71
2022/11/14 09:55:10;;;;;;;;;;;20.20;46.70;;;;;;5089778;28;19985;-71
2022/11/14 09:57:37;;;;;;;;;;;20.20;46.80;;;;;;5070761;28;19931;-72
2022/11/14 10:00:04;;;;;;;;;;;20.20;46.80;;;;;;5093623;28;19928;-74
2022/11/14 10:02:33;;;;;;;;;;;20.20;46.80;;;;;;5087936;28;19931;-75
2022/11/14 10:05:04;;;;;;;;;;;20.20;46.80;;;;;;5073054;28;19932;-72
2022/11/14 10:07:32;;;;;;;;;;;20.20;46.80;;;;;;5070118;28;19925;-74
2022/11/14 10:10:01;;;;;;;;;;;20.20;46.80;;;;;;5087259;28;19924;-79
2022/11/14 10:12:30;;;;;;;;;;;20.20;46.80;;;;;;5086645;28;19947;-61
2022/11/14 10:15:15;;;;;;;;;;;20.20;46.80;;;;;;5072245;28;19929;-61
2022/11/14 10:17:45;;;;;;;;;;;20.20;46.80;;;;;;5084075;28;19928;-63
2022/11/14 10:20:17;;;;;;;;;;;20.20;46.80;;;;;;5068607;28;19939;-63
2022/11/14 10:22:48;;;;;;;;;;;20.20;46.70;;;;;;5067139;28;19924;-65
2022/11/14 10:25:22;;;;;;;;;;;20.20;46.50;;;;;;5072579;28;19931;-66
2022/11/14 10:27:52;;;;;;;;;;;20.20;46.30;;;;;;5069313;28;19929;-65
2022/11/14 10:30:19;;;;;;;;;;;20.20;46.20;;;;;;5082696;28;21426;-61
2022/11/14 10:32:50;;;;;;;;;;;20.20;46.10;;;;;;5071938;28;19932;-63
2022/11/14 10:35:21;;;;;;;;;;;20.20;45.90;;;;;;5072457;28;19932;-64
2022/11/14 10:37:51;;;;;;;;;;;20.20;45.80;;;;;;5062731;28;19931;-63
2022/11/14 10:40:18;;;;;;;;;;;20.20;45.70;;;;;;5065291;28;19928;-62
2022/11/14 10:42:46;;;;;;;;;;;20.20;45.70;;;;;;5073566;28;20427;-63
2022/11/14 10:45:16;;;;;;;;;;;20.10;45.50;;;;;;5086516;28;19924;-66
2022/11/14 10:47:44;;;;;;;;;;;20.10;45.40;;;;;;5062009;28;19936;-63
2022/11/14 10:50:15;;;;;;;;;;;20.10;45.50;;;;;;5064509;28;19940;-62
2022/11/14 10:52:43;;;;;;;;;;;20.10;45.40;;;;;;5074839;28;19928;-63
2022/11/14 10:55:13;;;;;;;;;;;20.10;45.40;;;;;;5078875;28;19924;-63
2022/11/14 10:57:40;;;;;;;;;;;20.10;45.40;;;;;;5065646;28;20306;-61
2022/11/14 11:00:10;;;;;;;;;;;20.10;46.00;;;;;;5064051;28;19924;-62
2022/11/14 11:02:47;;;;;;;;;;;20.10;45.40;;;;;;5083674;28;19967;-62
2022/11/14 11:05:15;;;;;;;;;;;20.10;45.40;;;;;;5065485;28;19928;-62
2022/11/14 11:13:14;;;;;;;;;;;20.10;45.40;;;;;;5073750;28;19936;-63
2022/11/14 11:15:42;;;;;;;;;;;20.00;45.20;;;;;;5068141;28;19932;-62
2022/11/14 11:18:24;;;;;;;;;;;20.00;45.10;;;;;;5076116;28;19970;-62
2022/11/14 11:21:01;;;;;;;;;;;20.00;45.10;;;;;;5067364;28;19947;-63
2022/11/14 11:23:29;;;;;;;;;;;20.00;45.00;;;;;;5078280;28;19932;-62
2022/11/14 11:25:58;;;;;;;;;;;20.00;45.50;;;;;;5063302;28;19924;-63
2022/11/14 11:28:26;;;;;;;;;;;20.00;44.90;;;;;;5075382;28;19924;-63
2022/11/14 11:30:57;;;;;;;;;;;20.00;44.90;;;;;;5090737;28;19931;-61
2022/11/14 11:33:25;;;;;;;;;;;20.00;44.80;;;;;;5072126;28;19924;-62
2022/11/14 11:35:52;;;;;;;;;;;20.00;44.70;;;;;;5065360;28;19928;-63
2022/11/14 11:38:19;;;;;;;;;;;19.90;44.60;;;;;;5087252;28;20314;-62
2022/11/14 11:40:48;;;;;;;;;;;19.90;44.60;;;;;;5069412;28;19931;-62
2022/11/14 11:43:16;;;;;;;;;;;19.90;44.60;;;;;;5065528;28;19932;-62
2022/11/14 11:45:43;;;;;;;;;;;19.90;44.50;;;;;;5075909;28;19932;-63
2022/11/14 11:48:13;;;;;;;;;;;19.90;44.50;;;;;;5061709;28;19977;-62
2022/11/14 11:50:40;;;;;;;;;;;19.90;44.50;;;;;;5075942;28;19928;-62
2022/11/14 11:53:11;;;;;;;;;;;19.90;44.50;;;;;;5097956;28;19924;-62
2022/11/14 11:55:39;;;;;;;;;;;19.90;44.40;;;;;;5082537;28;19936;-63
2022/11/14 11:58:10;;;;;;;;;;;19.90;44.50;;;;;;5064541;28;19928;-63
2022/11/14 12:00:37;;;;;;;;;;;19.90;44.50;;;;;;5074266;28;19921;-63
2022/11/14 12:03:04;;;;;;;;;;;19.90;44.10;;;;;;5076138;28;19924;-63
2022/11/14 12:05:32;;;;;;;;;;;19.80;42.80;;;;;;5084798;28;19936;-63
2022/11/14 12:08:03;;;;;;;;;;;19.70;42.20;;;;;;5094597;28;19924;-63
2022/11/14 12:10:30;;;;;;;;;;;19.60;41.70;;;;;;5101977;28;19968;-63
2022/11/14 12:13:03;;;;;;;;;;;19.50;41.80;;;;;;5073225;28;19944;-63
2022/11/14 12:15:33;;;;;;;;;;;19.40;41.90;;;;;;5088442;28;19970;-61
2022/11/14 12:18:09;;;;;;;;;;;19.30;42.20;;;;;;5082178;28;19932;-63
2022/11/14 12:20:45;;;;;;;;;;;19.20;42.40;;;;;;5082534;28;19929;-62
2022/11/14 12:23:27;;;;;;;;;;;19.20;42.70;;;;;;5095138;28;19924;-61
2022/11/14 12:25:57;;;;;;;;;;;19.20;43.20;;;;;;5071904;28;19936;-61
2022/11/14 12:28:31;;;;;;;;;;;19.20;43.30;;;;;;5072617;28;19932;-62
2022/11/14 12:31:01;;;;;;;;;;;19.20;43.50;;;;;;5066936;28;19998;-61
2022/11/14 12:33:28;;;;;;;;;;;19.20;43.60;;;;;;5075322;28;19928;-62
2022/11/14 12:35:55;;;;;;;;;;;19.20;43.80;;;;;;5067166;28;19998;-63
2022/11/14 12:38:22;;;;;;;;;;;19.20;43.80;;;;;;5079609;28;20006;-63
2022/11/14 12:40:49;;;;;;;;;;;19.30;44.00;;;;;;5073635;28;19929;-61
2022/11/14 12:43:30;;;;;;;;;;;19.30;44.10;;;;;;5082398;28;19928;-61
2022/11/14 12:45:58;;;;;;;;;;;19.30;44.10;;;;;;5072980;28;19932;-61
2022/11/14 12:48:30;;;;;;;;;;;19.40;44.20;;;;;;5077187;28;19930;-62
2022/11/14 12:50:57;;;;;;;;;;;19.40;44.30;;;;;;5070536;28;19925;-61
2022/11/14 12:53:38;;;;;;;;;;;19.40;44.30;;;;;;5088209;28;19967;-62
2022/11/14 12:56:08;;;;;;;;;;;19.50;44.40;;;;;;5071839;28;19939;-61
2022/11/14 12:58:47;;;;;;;;;;;19.50;44.50;;;;;;5073531;28;19928;-61
2022/11/14 13:01:24;;;;;;;;;;;19.50;44.50;;;;;;5078685;28;19975;-62
2022/11/14 13:03:56;;;;;;;;;;;19.50;44.50;;;;;;5075340;28;20374;-62
2022/11/14 13:06:24;;;;;;;;;;;19.50;44.50;;;;;;5068772;28;20267;-61
2022/11/14 13:09:05;;;;;;;;;;;19.50;44.60;;;;;;5090660;28;20432;-62
2022/11/14 13:21:44;;;;;;;;;;;19.50;45.20;;;;;;5086000;28;19924;-61
2022/11/14 13:22:40;;;;;;;;;;;19.60;44.70;;;;;;5091266;28;20265;-62
2022/11/14 13:25:18;;;;;;;;;;;19.60;44.80;;;;;;5070153;28;19932;-61
2022/11/14 13:27:44;;;;;;;;;;;19.60;44.80;;;;;;5084846;28;19924;-62
2022/11/14 13:30:11;;;;;;;;;;;19.60;44.80;;;;;;5071735;28;19950;-63
2022/11/14 13:33:05;;;;;;;;;;;19.60;44.80;;;;;;5071816;28;20134;-62
2022/11/14 13:35:44;;;;;;;;;;;19.70;44.90;;;;;;5065752;28;19924;-62
2022/11/14 13:38:32;;;;;;;;;;;19.70;44.90;;;;;;5083839;28;20653;-62
2022/11/14 13:41:01;;;;;;;;;;;19.70;44.40;;;;;;5069173;28;19928;-63
2022/11/14 13:43:30;;;;;;;;;;;19.70;44.90;;;;;;5071919;28;20019;-60
2022/11/14 13:45:59;;;;;;;;;;;19.70;44.90;;;;;;5060804;28;19982;-59
2022/11/14 13:48:53;;;;;;;;;;;19.70;44.90;;;;;;5069964;28;20397;-64
2022/11/14 13:51:21;;;;;;;;;;;19.70;44.80;;;;;;5064203;28;19935;-62
2022/11/14 13:53:48;;;;;;;;;;;19.70;44.80;;;;;;5070903;28;19928;-60
2022/11/14 13:56:19;;;;;;;;;;;19.70;44.80;;;;;;5084654;28;19932;-61
2022/11/14 13:59:12;;;;;;;;;;;19.80;44.90;;;;;;5070419;28;19925;-62
2022/11/14 14:01:43;;;;;;;;;;;19.80;44.90;;;;;;5047545;28;19924;-61
2022/11/14 14:04:14;;;;;;;;;;;19.70;44.80;;;;;;5082602;28;19925;-61
2022/11/14 14:06:45;;;;;;;;;;;19.80;44.90;;;;;;5070079;28;19948;-62
2022/11/14 14:09:22;;;;;;;;;;;19.80;44.90;;;;;;5072366;28;19925;-62
2022/11/14 14:11:53;;;;;;;;;;;19.80;44.90;;;;;;5081785;28;19924;-62
2022/11/14 14:14:31;;;;;;;;;;;19.70;44.80;;;;;;5086047;28;20417;-60
2022/11/14 14:16:58;;;;;;;;;;;19.80;44.90;;;;;;5082306;28;20019;-61
2022/11/14 14:19:34;;;;;;;;;;;19.80;44.90;;;;;;5073282;28;19924;-61
2022/11/14 14:22:03;;;;;;;;;;;19.80;45.00;;;;;;5067719;28;20313;-61
2022/11/14 14:24:41;;;;;;;;;;;19.80;44.90;;;;;;5068953;28;20423;-62
2022/11/14 14:27:11;;;;;;;;;;;19.80;44.90;;;;;;5065624;28;20378;-62
2022/11/14 14:29:40;;;;;;;;;;;19.80;44.90;;;;;;5082488;28;19936;-61
2022/11/14 14:32:07;;;;;;;;;;;19.80;44.90;;;;;;5085644;28;20409;-62
2022/11/14 14:34:34;;;;;;;;;;;19.80;44.90;;;;;;5069879;28;19954;-62
2022/11/14 14:37:02;;;;;;;;;;;19.80;44.80;;;;;;5080241;28;19955;-62